Time;durP1;ratioP1;P1;durP2;ratioP2;P2;SDS_P1;SDS_P2;PMS_P1;PMS_P2;Temp;Humidity;BMP_temperature;BMP_pressure;BME280_temperature;BME280_humidity;BME280_pressure;Samples;Min_cycle;Max_cycle;Signal;HPM_P1;HPM_P2
2024/03/15 00:00:23;;;;;;;;;;;7.20;90.50;;;;;;5017391;28;88047;-45
2024/03/15 00:02:49;;;;;;;;;;;7.20;90.40;;;;;;5017777;28;88684;-45
2024/03/15 00:05:15;;;;;;;;;;;7.20;90.40;;;;;;5020101;28;87032;-46
2024/03/15 00:07:40;;;;;;;;;;;7.20;90.40;;;;;;5019006;28;88134;-45
2024/03/15 00:10:06;;;;;;;;;;;7.30;90.60;;;;;;5022725;28;87339;-44
2024/03/15 00:12:33;;;;;;;;;;;7.30;90.40;;;;;;5016046;28;87041;-45
2024/03/15 00:14:58;;;;;;;;;;;7.20;90.40;;;;;;5022577;28;87860;-45
2024/03/15 00:17:24;;;;;;;;;;;7.20;90.40;;;;;;5022621;28;87605;-44
2024/03/15 00:19:50;;;;;;;;;;;7.20;90.40;;;;;;5017041;28;87023;-46
2024/03/15 00:22:15;;;;;;;;;;;7.20;90.40;;;;;;5020753;28;88760;-45
2024/03/15 00:24:41;;;;;;;;;;;7.20;90.40;;;;;;5018546;28;87074;-44
2024/03/15 00:27:07;;;;;;;;;;;7.20;90.40;;;;;;5023056;28;87929;-44
2024/03/15 00:29:33;;;;;;;;;;;7.20;90.30;;;;;;5020196;28;88805;-44
2024/03/15 00:32:01;;;;;;;;;;;7.20;90.40;;;;;;5020040;28;86515;-45
2024/03/15 00:34:26;;;;;;;;;;;7.20;90.40;;;;;;5016391;28;87241;-44
2024/03/15 00:36:52;;;;;;;;;;;7.20;90.40;;;;;;5017680;28;87581;-45
2024/03/15 00:39:20;;;;;;;;;;;7.20;90.40;;;;;;5022101;28;87930;-45
2024/03/15 00:41:48;;;;;;;;;;;7.20;90.40;;;;;;5023408;28;86943;-46
2024/03/15 00:44:16;;;;;;;;;;;7.20;90.40;;;;;;5017824;28;87053;-45
2024/03/15 00:46:42;;;;;;;;;;;7.20;90.40;;;;;;5018530;28;87286;-44
2024/03/15 00:49:09;;;;;;;;;;;7.20;90.40;;;;;;5023192;28;86983;-45
2024/03/15 00:51:35;;;;;;;;;;;7.20;90.40;;;;;;5021517;28;86967;-44
2024/03/15 00:54:01;;;;;;;;;;;7.20;90.40;;;;;;5019620;28;88064;-44
2024/03/15 00:56:26;;;;;;;;;;;7.20;90.40;;;;;;5020287;28;86550;-46
2024/03/15 00:58:54;;;;;;;;;;;7.20;90.40;;;;;;5022042;28;86999;-45
2024/03/15 01:01:19;;;;;;;;;;;7.20;90.40;;;;;;5017754;28;88568;-45
2024/03/15 01:03:45;;;;;;;;;;;7.10;90.40;;;;;;5013469;28;87895;-45
2024/03/15 01:06:13;;;;;;;;;;;7.20;90.40;;;;;;5017555;28;87003;-44
2024/03/15 01:08:39;;;;;;;;;;;7.20;90.40;;;;;;5018476;28;88567;-45
2024/03/15 01:11:05;;;;;;;;;;;7.20;90.40;;;;;;5017968;28;86981;-44
2024/03/15 01:13:30;;;;;;;;;;;7.20;90.40;;;;;;5018116;28;87077;-46
2024/03/15 01:15:56;;;;;;;;;;;7.10;90.40;;;;;;5021070;28;87004;-44
2024/03/15 01:18:22;;;;;;;;;;;7.10;90.40;;;;;;5015823;28;87069;-45
2024/03/15 01:20:48;;;;;;;;;;;7.10;90.30;;;;;;5018177;28;86869;-44
2024/03/15 01:23:14;;;;;;;;;;;7.10;90.30;;;;;;5021201;28;86996;-45
2024/03/15 01:25:39;;;;;;;;;;;7.10;90.30;;;;;;5018934;28;87010;-45
2024/03/15 01:28:06;;;;;;;;;;;7.10;90.60;;;;;;5015974;28;91310;-47
2024/03/15 01:30:32;;;;;;;;;;;7.10;90.30;;;;;;5017898;28;86874;-46
2024/03/15 01:32:57;;;;;;;;;;;7.10;90.30;;;;;;5019645;28;87816;-46
2024/03/15 01:35:32;;;;;;;;;;;7.10;90.30;;;;;;5021810;28;87901;-44
2024/03/15 01:38:01;;;;;;;;;;;7.10;90.30;;;;;;5017113;28;87589;-48
2024/03/15 01:40:26;;;;;;;;;;;7.10;90.30;;;;;;5018554;28;88599;-46
2024/03/15 01:42:52;;;;;;;;;;;7.10;90.30;;;;;;5018512;28;87260;-46
2024/03/15 01:45:18;;;;;;;;;;;7.10;90.30;;;;;;5019457;28;88383;-45
2024/03/15 01:47:44;;;;;;;;;;;7.10;90.30;;;;;;5020416;28;88049;-45
2024/03/15 01:50:09;;;;;;;;;;;7.10;90.40;;;;;;5015865;28;87777;-44
2024/03/15 01:52:35;;;;;;;;;;;7.10;90.30;;;;;;5021451;28;87916;-45
2024/03/15 01:55:02;;;;;;;;;;;7.10;90.30;;;;;;5021126;28;88483;-45
2024/03/15 01:57:27;;;;;;;;;;;7.10;90.30;;;;;;5025411;28;87650;-46
2024/03/15 01:59:53;;;;;;;;;;;7.10;90.30;;;;;;5020422;28;87701;-45
2024/03/15 02:02:19;;;;;;;;;;;7.10;90.30;;;;;;5016682;28;87565;-45
2024/03/15 02:04:53;;;;;;;;;;;7.10;90.30;;;;;;5020798;28;86987;-46
2024/03/15 02:07:22;;;;;;;;;;;7.10;90.30;;;;;;5019045;28;88936;-44
2024/03/15 02:09:48;;;;;;;;;;;7.10;90.30;;;;;;5021487;28;86268;-44
2024/03/15 02:12:14;;;;;;;;;;;7.10;90.30;;;;;;5017542;28;87057;-44
2024/03/15 02:14:40;;;;;;;;;;;7.10;90.30;;;;;;5018640;28;87584;-45
2024/03/15 02:17:06;;;;;;;;;;;7.10;90.30;;;;;;5021469;28;88260;-45
2024/03/15 02:19:32;;;;;;;;;;;7.10;90.30;;;;;;5015425;28;87938;-45
2024/03/15 02:21:58;;;;;;;;;;;7.00;90.30;;;;;;5018963;28;87900;-44
2024/03/15 02:24:23;;;;;;;;;;;7.10;90.30;;;;;;5018220;28;86782;-44
2024/03/15 02:26:49;;;;;;;;;;;7.10;90.30;;;;;;5020872;28;87093;-44
2024/03/15 02:29:17;;;;;;;;;;;7.00;90.30;;;;;;5021131;28;87160;-44
2024/03/15 02:31:46;;;;;;;;;;;7.00;90.30;;;;;;5018593;28;86970;-45
2024/03/15 02:34:13;;;;;;;;;;;7.00;90.30;;;;;;5022890;28;87875;-44
2024/03/15 02:36:40;;;;;;;;;;;7.00;90.30;;;;;;5018674;28;87954;-46
2024/03/15 02:39:07;;;;;;;;;;;7.00;90.30;;;;;;5022660;27;87834;-45
2024/03/15 02:41:33;;;;;;;;;;;7.00;90.40;;;;;;5018671;28;89476;-46
2024/03/15 02:43:59;;;;;;;;;;;7.00;90.30;;;;;;5019796;28;86957;-45
2024/03/15 02:46:25;;;;;;;;;;;7.00;90.30;;;;;;5024882;28;86838;-44
2024/03/15 02:48:51;;;;;;;;;;;7.00;90.30;;;;;;5023637;28;87028;-44
2024/03/15 02:51:16;;;;;;;;;;;7.00;90.30;;;;;;5022934;28;86984;-44
2024/03/15 02:53:43;;;;;;;;;;;7.00;90.30;;;;;;5019048;28;87343;-48
2024/03/15 02:56:09;;;;;;;;;;;7.00;90.30;;;;;;5017292;28;87419;-44
2024/03/15 02:58:36;;;;;;;;;;;7.00;90.30;;;;;;5021647;28;88059;-46
2024/03/15 03:01:01;;;;;;;;;;;7.00;90.30;;;;;;5015603;28;88624;-46
2024/03/15 03:03:27;;;;;;;;;;;7.00;90.30;;;;;;5018215;28;86955;-52
2024/03/15 03:05:52;;;;;;;;;;;7.00;90.30;;;;;;5016617;28;88673;-45
2024/03/15 03:08:18;;;;;;;;;;;7.00;90.60;;;;;;5023409;28;88417;-45
2024/03/15 03:10:44;;;;;;;;;;;6.90;90.30;;;;;;5016414;28;87797;-46
2024/03/15 03:13:09;;;;;;;;;;;7.00;90.30;;;;;;5025161;28;87413;-44
2024/03/15 03:15:35;;;;;;;;;;;6.90;90.30;;;;;;5018858;28;87030;-45
2024/03/15 03:18:01;;;;;;;;;;;6.90;90.30;;;;;;5022174;28;87082;-45
2024/03/15 03:20:28;;;;;;;;;;;7.00;90.30;;;;;;5019674;28;88648;-46
2024/03/15 03:22:53;;;;;;;;;;;6.90;90.30;;;;;;5019160;28;86758;-44
2024/03/15 03:25:20;;;;;;;;;;;7.00;90.30;;;;;;5019408;28;87641;-45
2024/03/15 03:27:46;;;;;;;;;;;6.90;90.30;;;;;;5016038;28;87688;-45
2024/03/15 03:30:11;;;;;;;;;;;6.90;90.30;;;;;;5022888;28;88002;-45
2024/03/15 03:32:38;;;;;;;;;;;6.90;90.30;;;;;;5021804;28;86949;-45
2024/03/15 03:35:04;;;;;;;;;;;6.90;90.30;;;;;;5020314;28;87035;-46
2024/03/15 03:37:30;;;;;;;;;;;6.90;90.20;;;;;;5016477;28;87255;-46
2024/03/15 03:39:56;;;;;;;;;;;6.90;90.20;;;;;;5014528;28;87557;-45
2024/03/15 03:42:21;;;;;;;;;;;6.90;90.30;;;;;;5026079;28;86982;-44
2024/03/15 03:44:47;;;;;;;;;;;6.90;90.30;;;;;;5013849;28;87051;-44
2024/03/15 03:47:12;;;;;;;;;;;6.90;90.40;;;;;;5024609;28;86706;-44
2024/03/15 03:49:38;;;;;;;;;;;6.90;90.30;;;;;;5017646;28;87138;-45
2024/03/15 03:52:03;;;;;;;;;;;6.90;90.30;;;;;;5026903;28;87912;-44
2024/03/15 03:54:30;;;;;;;;;;;6.90;90.30;;;;;;5022816;28;87954;-44
2024/03/15 03:56:57;;;;;;;;;;;6.80;90.30;;;;;;5016338;28;88796;-44
2024/03/15 03:59:22;;;;;;;;;;;6.80;90.40;;;;;;5020805;28;88689;-45
2024/03/15 04:01:48;;;;;;;;;;;6.90;90.30;;;;;;5014639;28;86982;-44
2024/03/15 04:04:14;;;;;;;;;;;6.90;90.20;;;;;;5018990;28;87947;-45
2024/03/15 04:06:45;;;;;;;;;;;6.80;90.20;;;;;;5017194;28;88430;-46
2024/03/15 04:09:11;;;;;;;;;;;6.80;90.30;;;;;;5019069;28;87493;-45
2024/03/15 04:11:38;;;;;;;;;;;6.80;90.20;;;;;;5017774;28;86858;-45
2024/03/15 04:14:04;;;;;;;;;;;6.80;90.30;;;;;;5019366;28;88471;-44
2024/03/15 04:16:30;;;;;;;;;;;6.80;90.30;;;;;;5015047;28;87310;-44
2024/03/15 04:18:57;;;;;;;;;;;6.80;90.30;;;;;;5013181;28;89659;-46
2024/03/15 04:21:23;;;;;;;;;;;6.80;90.30;;;;;;5021023;28;86953;-44
2024/03/15 04:23:49;;;;;;;;;;;6.80;90.20;;;;;;5016137;28;88121;-43
2024/03/15 04:26:15;;;;;;;;;;;6.80;90.20;;;;;;5020194;28;88534;-44
2024/03/15 04:28:41;;;;;;;;;;;6.80;90.20;;;;;;5019836;28;87054;-45
2024/03/15 04:31:07;;;;;;;;;;;6.80;90.30;;;;;;5019250;28;88081;-46
2024/03/15 04:33:35;;;;;;;;;;;6.80;90.20;;;;;;5017080;28;89853;-44
2024/03/15 04:36:04;;;;;;;;;;;6.80;90.30;;;;;;5022346;28;86337;-44
2024/03/15 04:38:30;;;;;;;;;;;6.80;90.30;;;;;;5019447;28;88463;-44
2024/03/15 04:40:55;;;;;;;;;;;6.80;90.20;;;;;;5019417;28;87026;-44
2024/03/15 04:43:21;;;;;;;;;;;6.80;90.20;;;;;;5022954;28;87908;-44
2024/03/15 04:45:47;;;;;;;;;;;6.80;90.20;;;;;;5017567;28;88669;-44
2024/03/15 04:48:12;;;;;;;;;;;6.80;90.20;;;;;;5018219;28;87345;-44
2024/03/15 04:50:38;;;;;;;;;;;6.80;90.30;;;;;;5012411;28;86950;-45
2024/03/15 04:53:04;;;;;;;;;;;6.80;90.20;;;;;;5021110;28;88829;-45
2024/03/15 04:55:30;;;;;;;;;;;6.80;90.30;;;;;;5021097;28;87131;-45
2024/03/15 04:57:55;;;;;;;;;;;6.80;90.20;;;;;;5018560;28;87023;-44
2024/03/15 05:00:21;;;;;;;;;;;6.80;90.30;;;;;;5019738;28;86259;-44
2024/03/15 05:02:49;;;;;;;;;;;6.70;90.20;;;;;;5016760;28;86958;-45
2024/03/15 05:05:15;;;;;;;;;;;6.70;90.20;;;;;;5015932;28;88272;-45
2024/03/15 05:07:42;;;;;;;;;;;6.70;90.30;;;;;;5017037;28;88093;-44
2024/03/15 05:10:09;;;;;;;;;;;6.80;90.20;;;;;;5021748;28;87664;-44
2024/03/15 05:12:35;;;;;;;;;;;6.70;90.30;;;;;;5016231;28;88559;-45
2024/03/15 05:15:02;;;;;;;;;;;6.70;90.20;;;;;;5016567;28;87897;-45
2024/03/15 05:17:27;;;;;;;;;;;6.70;90.30;;;;;;5022368;28;86985;-43
2024/03/15 05:19:53;;;;;;;;;;;6.70;90.20;;;;;;5016888;28;87399;-43
2024/03/15 05:22:19;;;;;;;;;;;6.70;90.20;;;;;;5019198;28;87305;-44
2024/03/15 05:24:44;;;;;;;;;;;6.70;90.20;;;;;;5013969;28;86909;-44
2024/03/15 05:27:10;;;;;;;;;;;6.70;90.20;;;;;;5022760;28;87031;-45
2024/03/15 05:29:38;;;;;;;;;;;6.70;90.20;;;;;;5026036;28;86874;-44
2024/03/15 05:32:04;;;;;;;;;;;6.70;90.50;;;;;;5015995;28;89646;-45
2024/03/15 05:34:31;;;;;;;;;;;6.70;90.20;;;;;;5022933;28;87032;-45
2024/03/15 05:36:57;;;;;;;;;;;6.70;90.20;;;;;;5018849;28;87024;-44
2024/03/15 05:39:22;;;;;;;;;;;6.70;90.20;;;;;;5028621;28;87456;-44
2024/03/15 05:41:48;;;;;;;;;;;6.70;90.20;;;;;;5017895;28;88054;-44
2024/03/15 05:44:14;;;;;;;;;;;6.70;90.20;;;;;;5020725;28;88622;-45
2024/03/15 05:46:40;;;;;;;;;;;6.70;90.20;;;;;;5018097;28;87073;-44
2024/03/15 05:49:05;;;;;;;;;;;6.70;90.20;;;;;;5020954;28;86783;-44
2024/03/15 05:51:32;;;;;;;;;;;6.70;90.30;;;;;;5021809;28;87257;-46
2024/03/15 05:53:57;;;;;;;;;;;6.70;90.30;;;;;;5017243;28;86977;-44
2024/03/15 05:56:23;;;;;;;;;;;6.60;90.20;;;;;;5016735;28;88077;-44
2024/03/15 05:58:49;;;;;;;;;;;6.60;90.30;;;;;;5021454;28;87692;-45
2024/03/15 06:01:14;;;;;;;;;;;6.60;90.30;;;;;;5024932;28;88071;-45
2024/03/15 06:03:40;;;;;;;;;;;6.60;90.20;;;;;;5016711;28;86956;-44
2024/03/15 06:06:07;;;;;;;;;;;6.70;90.20;;;;;;5018278;28;87206;-45
2024/03/15 06:08:32;;;;;;;;;;;6.70;90.20;;;;;;5018839;28;88041;-44
2024/03/15 06:10:58;;;;;;;;;;;6.70;90.20;;;;;;5020483;28;87772;-45
2024/03/15 06:13:25;;;;;;;;;;;6.60;90.20;;;;;;5020573;28;87113;-45
2024/03/15 06:15:50;;;;;;;;;;;6.70;90.20;;;;;;5017518;28;87117;-45
2024/03/15 06:18:16;;;;;;;;;;;6.60;90.30;;;;;;5023296;28;87568;-44
2024/03/15 06:20:42;;;;;;;;;;;6.60;90.50;;;;;;5015960;28;88678;-44
2024/03/15 06:23:08;;;;;;;;;;;6.60;90.20;;;;;;5022623;28;88755;-46
2024/03/15 06:25:34;;;;;;;;;;;6.70;90.20;;;;;;5018574;28;86998;-44
2024/03/15 06:28:06;;;;;;;;;;;6.60;90.20;;;;;;5024449;28;87071;-43
2024/03/15 06:30:34;;;;;;;;;;;6.60;90.20;;;;;;5019563;28;88456;-46
2024/03/15 06:33:01;;;;;;;;;;;6.60;90.20;;;;;;5020386;28;87514;-44
2024/03/15 06:35:27;;;;;;;;;;;6.60;90.20;;;;;;5021350;28;86980;-43
2024/03/15 06:37:54;;;;;;;;;;;6.60;90.20;;;;;;5015771;28;86213;-44
2024/03/15 06:40:42;;;;;;;;;;;6.60;90.20;;;;;;5023379;28;87059;-44
2024/03/15 06:46:20;;;;;;;;;;;6.60;90.10;;;;;;5022124;28;88500;-45
2024/03/15 06:48:33;;;;;;;;;;;6.60;90.20;;;;;;5013833;28;88532;-45
2024/03/15 06:53:47;;;;;;;;;;;6.60;90.30;;;;;;5018541;28;87657;-44
2024/03/15 06:56:13;;;;;;;;;;;6.60;90.20;;;;;;5020085;28;87048;-45
2024/03/15 06:58:39;;;;;;;;;;;6.60;90.20;;;;;;5018520;28;87671;-44
2024/03/15 07:01:05;;;;;;;;;;;6.60;90.20;;;;;;5022784;28;87982;-44
2024/03/15 07:03:31;;;;;;;;;;;6.60;90.20;;;;;;5021435;28;87693;-45
2024/03/15 07:05:58;;;;;;;;;;;6.60;90.10;;;;;;5023243;28;87487;-43
2024/03/15 07:08:23;;;;;;;;;;;6.60;90.10;;;;;;5023103;28;87049;-46
2024/03/15 07:10:49;;;;;;;;;;;6.60;90.10;;;;;;5019229;28;89853;-45
2024/03/15 07:13:14;;;;;;;;;;;6.60;90.10;;;;;;5020585;28;87855;-45
2024/03/15 07:15:40;;;;;;;;;;;6.60;90.20;;;;;;5023839;28;87931;-45
2024/03/15 07:18:08;;;;;;;;;;;6.60;90.00;;;;;;5015270;28;87562;-44
2024/03/15 07:20:36;;;;;;;;;;;6.60;90.10;;;;;;5016093;28;87753;-44
2024/03/15 07:23:05;;;;;;;;;;;6.60;90.00;;;;;;5020657;28;87884;-44
2024/03/15 07:25:31;;;;;;;;;;;6.60;90.10;;;;;;5021177;28;87702;-43
2024/03/15 07:27:59;;;;;;;;;;;6.60;90.10;;;;;;5022228;28;86237;-44
2024/03/15 07:30:25;;;;;;;;;;;6.60;90.00;;;;;;5018073;28;87555;-44
2024/03/15 07:32:51;;;;;;;;;;;6.60;90.10;;;;;;5013838;28;88683;-45
2024/03/15 07:35:17;;;;;;;;;;;6.60;90.20;;;;;;5022015;28;87842;-43
2024/03/15 07:37:45;;;;;;;;;;;6.60;90.10;;;;;;5020843;28;87632;-44
2024/03/15 07:40:10;;;;;;;;;;;6.60;90.10;;;;;;5020436;28;87165;-45
2024/03/15 07:42:36;;;;;;;;;;;6.60;90.30;;;;;;5015607;28;87571;-45
2024/03/15 07:45:04;;;;;;;;;;;6.60;90.10;;;;;;5017511;28;87736;-44
2024/03/15 07:47:29;;;;;;;;;;;6.60;90.10;;;;;;5020930;28;87807;-44
2024/03/15 07:49:55;;;;;;;;;;;6.60;90.10;;;;;;5020349;28;87819;-44
2024/03/15 07:52:20;;;;;;;;;;;6.60;90.10;;;;;;5021256;28;86309;-44
2024/03/15 07:54:46;;;;;;;;;;;6.60;90.10;;;;;;5014397;28;87742;-44
2024/03/15 07:57:12;;;;;;;;;;;6.60;90.20;;;;;;5019163;28;87701;-45
2024/03/15 07:59:39;;;;;;;;;;;6.60;90.20;;;;;;5018464;28;88094;-44
2024/03/15 08:02:05;;;;;;;;;;;6.60;90.20;;;;;;5013120;28;88819;-44
2024/03/15 08:04:30;;;;;;;;;;;6.60;90.20;;;;;;5001672;27;87840;-44
2024/03/15 08:06:56;;;;;;;;;;;6.60;90.20;;;;;;5012409;28;87713;-43
2024/03/15 08:09:23;;;;;;;;;;;6.60;90.20;;;;;;5015361;28;89700;-46
2024/03/15 08:11:49;;;;;;;;;;;6.60;90.20;;;;;;5015207;28;87320;-44
2024/03/15 08:14:14;;;;;;;;;;;6.60;90.30;;;;;;5019289;28;87361;-45
2024/03/15 08:16:41;;;;;;;;;;;6.60;90.30;;;;;;5020751;28;86313;-44
2024/03/15 08:19:08;;;;;;;;;;;6.60;90.30;;;;;;5009249;27;87830;-43
2024/03/15 08:21:36;;;;;;;;;;;6.60;90.40;;;;;;5021829;28;86891;-44
2024/03/15 08:24:04;;;;;;;;;;;6.60;90.30;;;;;;5013705;28;88580;-44
2024/03/15 08:26:32;;;;;;;;;;;6.60;90.30;;;;;;5012589;28;87778;-44
2024/03/15 08:28:58;;;;;;;;;;;6.60;90.20;;;;;;5013549;28;87974;-43
2024/03/15 08:31:24;;;;;;;;;;;6.60;90.50;;;;;;5011668;28;87378;-45
2024/03/15 08:33:50;;;;;;;;;;;6.60;90.20;;;;;;5015662;28;86996;-44
2024/03/15 08:36:16;;;;;;;;;;;6.60;90.30;;;;;;4987026;27;87864;-44
2024/03/15 08:38:41;;;;;;;;;;;6.60;90.30;;;;;;5007949;27;87657;-46
2024/03/15 08:41:07;;;;;;;;;;;6.60;90.30;;;;;;5015398;28;87638;-43
2024/03/15 08:43:34;;;;;;;;;;;6.60;90.40;;;;;;5014870;28;87134;-44
2024/03/15 08:45:59;;;;;;;;;;;6.60;90.40;;;;;;5011014;28;87950;-44
2024/03/15 08:48:27;;;;;;;;;;;6.60;90.30;;;;;;5013538;28;88873;-45
2024/03/15 08:50:53;;;;;;;;;;;6.60;90.40;;;;;;5015863;28;87577;-44
2024/03/15 08:53:18;;;;;;;;;;;6.60;90.30;;;;;;5017653;28;87099;-45
2024/03/15 08:55:44;;;;;;;;;;;6.60;90.40;;;;;;5018415;28;87718;-44
2024/03/15 08:58:11;;;;;;;;;;;6.60;90.30;;;;;;5009219;28;87022;-44
2024/03/15 09:00:38;;;;;;;;;;;6.60;90.40;;;;;;5019607;28;87862;-45
2024/03/15 09:03:05;;;;;;;;;;;6.60;90.30;;;;;;5013464;28;87650;-44
2024/03/15 09:05:31;;;;;;;;;;;6.60;90.30;;;;;;5015101;28;87317;-44
2024/03/15 09:07:57;;;;;;;;;;;6.60;90.30;;;;;;5017931;28;88076;-43
2024/03/15 09:10:23;;;;;;;;;;;6.60;90.40;;;;;;5013328;28;88420;-44
2024/03/15 09:12:49;;;;;;;;;;;6.60;90.40;;;;;;5013270;28;87931;-46
2024/03/15 09:15:16;;;;;;;;;;;6.60;90.50;;;;;;5016810;28;88880;-46
2024/03/15 09:17:41;;;;;;;;;;;6.60;90.40;;;;;;5012962;28;87097;-45
2024/03/15 09:22:42;;;;;;;;;;;6.60;90.50;;;;;;5013150;28;87374;-45
2024/03/15 09:25:15;;;;;;;;;;;6.50;90.50;;;;;;5012409;28;87235;-44
2024/03/15 09:27:41;;;;;;;;;;;6.50;90.40;;;;;;5014461;28;88775;-45
2024/03/15 09:30:16;;;;;;;;;;;6.60;90.50;;;;;;5012845;28;87814;-45
2024/03/15 09:32:44;;;;;;;;;;;6.60;90.50;;;;;;5015353;28;86952;-45
2024/03/15 09:35:12;;;;;;;;;;;6.60;90.50;;;;;;5015061;28;87942;-45
2024/03/15 09:37:46;;;;;;;;;;;6.60;90.50;;;;;;5013739;28;89567;-44
2024/03/15 09:40:14;;;;;;;;;;;6.60;90.60;;;;;;5012953;28;88766;-44
2024/03/15 09:42:41;;;;;;;;;;;6.60;90.60;;;;;;5012977;28;89414;-45
2024/03/15 09:45:07;;;;;;;;;;;6.60;90.80;;;;;;5014147;28;87229;-45
2024/03/15 09:47:32;;;;;;;;;;;6.50;90.60;;;;;;5012489;28;87573;-44
2024/03/15 09:49:59;;;;;;;;;;;6.60;90.60;;;;;;5013916;28;87492;-45
2024/03/15 09:52:25;;;;;;;;;;;6.60;90.80;;;;;;5011305;28;87053;-44
2024/03/15 09:54:51;;;;;;;;;;;6.60;90.70;;;;;;5012031;28;86319;-44
2024/03/15 09:57:17;;;;;;;;;;;6.60;90.80;;;;;;5013359;28;87239;-45
2024/03/15 09:59:43;;;;;;;;;;;6.50;90.70;;;;;;5016056;28;87022;-45
2024/03/15 10:02:15;;;;;;;;;;;6.60;90.80;;;;;;5012122;28;88308;-44
2024/03/15 10:04:43;;;;;;;;;;;6.60;90.90;;;;;;5013741;28;87183;-44
2024/03/15 10:07:13;;;;;;;;;;;6.60;91.00;;;;;;5020264;28;87519;-45
2024/03/15 10:09:41;;;;;;;;;;;6.50;90.90;;;;;;5012564;28;88577;-44
2024/03/15 10:12:10;;;;;;;;;;;6.60;90.90;;;;;;4999650;27;122748;-45
2024/03/15 10:14:36;;;;;;;;;;;6.60;91.00;;;;;;5015011;28;87021;-45
2024/03/15 10:17:03;;;;;;;;;;;6.60;91.00;;;;;;5018094;28;87454;-44
2024/03/15 10:19:30;;;;;;;;;;;6.60;91.00;;;;;;5015950;28;87159;-44
2024/03/15 10:21:59;;;;;;;;;;;6.60;91.10;;;;;;5018519;28;87981;-45
2024/03/15 10:24:25;;;;;;;;;;;6.60;91.10;;;;;;5021284;28;87133;-45
2024/03/15 10:26:52;;;;;;;;;;;6.60;91.00;;;;;;5017180;28;87880;-46
2024/03/15 10:29:17;;;;;;;;;;;6.60;91.20;;;;;;5005700;27;129264;-46
2024/03/15 10:31:43;;;;;;;;;;;6.60;91.20;;;;;;5011457;28;87023;-45
2024/03/15 10:34:12;;;;;;;;;;;6.60;91.20;;;;;;5020903;28;87065;-45
2024/03/15 10:36:38;;;;;;;;;;;6.60;91.20;;;;;;5018586;28;87691;-45
2024/03/15 10:39:04;;;;;;;;;;;6.60;91.30;;;;;;5015814;28;87182;-45
2024/03/15 10:41:32;;;;;;;;;;;6.60;91.30;;;;;;5016959;28;87332;-44
2024/03/15 10:44:00;;;;;;;;;;;6.60;91.40;;;;;;5020878;28;86970;-45
2024/03/15 10:46:26;;;;;;;;;;;6.60;91.30;;;;;;5016194;28;87094;-45
2024/03/15 10:48:52;;;;;;;;;;;6.60;91.50;;;;;;5016608;28;87811;-44
2024/03/15 10:51:18;;;;;;;;;;;6.60;91.30;;;;;;5014997;28;87912;-44
2024/03/15 10:53:45;;;;;;;;;;;6.60;91.30;;;;;;5014999;28;87667;-44
2024/03/15 10:56:12;;;;;;;;;;;6.60;91.30;;;;;;5015485;28;88590;-45
2024/03/15 10:58:37;;;;;;;;;;;6.60;91.30;;;;;;5014853;28;87361;-45
2024/03/15 11:01:03;;;;;;;;;;;6.60;91.30;;;;;;5015152;28;86975;-44
2024/03/15 11:03:31;;;;;;;;;;;6.60;91.30;;;;;;5019273;28;87667;-44
2024/03/15 11:06:00;;;;;;;;;;;6.60;91.40;;;;;;5019501;28;87474;-44
2024/03/15 11:08:31;;;;;;;;;;;6.60;91.40;;;;;;5015643;28;86906;-45
2024/03/15 11:11:00;;;;;;;;;;;6.60;91.40;;;;;;5017081;28;87135;-45
2024/03/15 11:13:31;;;;;;;;;;;6.60;91.40;;;;;;5013487;28;87940;-45
2024/03/15 11:15:56;;;;;;;;;;;6.60;91.50;;;;;;5017567;28;89729;-45
2024/03/15 11:18:22;;;;;;;;;;;6.60;91.40;;;;;;5014633;28;87542;-45
2024/03/15 11:20:53;;;;;;;;;;;6.60;91.50;;;;;;5017067;28;87022;-45
2024/03/15 11:23:20;;;;;;;;;;;6.60;91.50;;;;;;5017607;28;87727;-45
2024/03/15 11:26:00;;;;;;;;;;;6.60;91.50;;;;;;5018073;28;87752;-44
2024/03/15 11:28:29;;;;;;;;;;;6.60;91.50;;;;;;5012724;28;87386;-44
2024/03/15 11:30:55;;;;;;;;;;;6.60;91.50;;;;;;5016083;28;87041;-44
2024/03/15 11:33:21;;;;;;;;;;;6.60;91.50;;;;;;5018904;28;86977;-46
2024/03/15 11:35:48;;;;;;;;;;;6.70;91.50;;;;;;5017117;28;87523;-44
2024/03/15 11:38:14;;;;;;;;;;;6.70;91.50;;;;;;5017868;28;87075;-45
2024/03/15 11:40:40;;;;;;;;;;;6.70;91.50;;;;;;5014102;28;88729;-46
2024/03/15 11:43:07;;;;;;;;;;;6.70;91.40;;;;;;5014174;28;88354;-45
2024/03/15 11:45:32;;;;;;;;;;;6.70;91.50;;;;;;5018083;28;87388;-45
2024/03/15 11:47:58;;;;;;;;;;;6.70;91.50;;;;;;5016385;28;87067;-46
2024/03/15 11:50:24;;;;;;;;;;;6.70;91.50;;;;;;5015683;28;87782;-45
2024/03/15 11:52:57;;;;;;;;;;;6.70;91.40;;;;;;5017143;28;88013;-44
2024/03/15 11:55:22;;;;;;;;;;;6.80;91.60;;;;;;5011659;28;88647;-45
2024/03/15 11:57:49;;;;;;;;;;;6.80;91.40;;;;;;5015224;28;87974;-45
2024/03/15 12:00:20;;;;;;;;;;;6.80;91.40;;;;;;5013311;28;88116;-44
2024/03/15 12:02:49;;;;;;;;;;;6.80;91.40;;;;;;5015518;28;88851;-45
2024/03/15 12:05:15;;;;;;;;;;;6.80;91.40;;;;;;5017685;28;88398;-45
2024/03/15 12:07:44;;;;;;;;;;;6.80;91.50;;;;;;5013418;28;88823;-44
2024/03/15 12:10:15;;;;;;;;;;;6.80;91.50;;;;;;5016292;28;87851;-44
2024/03/15 12:12:45;;;;;;;;;;;6.80;91.40;;;;;;5014508;28;87045;-45
2024/03/15 12:15:28;;;;;;;;;;;6.80;91.40;;;;;;5014686;28;88426;-45
2024/03/15 12:18:03;;;;;;;;;;;6.80;91.40;;;;;;5015140;28;87111;-45
2024/03/15 12:20:29;;;;;;;;;;;6.90;91.50;;;;;;5015863;28;87496;-44
2024/03/15 12:22:55;;;;;;;;;;;6.80;91.60;;;;;;5013714;28;86924;-45
2024/03/15 12:25:25;;;;;;;;;;;6.90;91.50;;;;;;5017218;28;87168;-44
2024/03/15 12:27:51;;;;;;;;;;;6.80;91.50;;;;;;5013708;28;87913;-44
2024/03/15 12:30:17;;;;;;;;;;;6.80;91.70;;;;;;5015216;28;89387;-44
2024/03/15 12:32:43;;;;;;;;;;;6.80;91.60;;;;;;5022734;28;87617;-45
2024/03/15 12:35:09;;;;;;;;;;;6.80;91.70;;;;;;5016086;28;87777;-44
2024/03/15 12:37:35;;;;;;;;;;;6.80;91.70;;;;;;5017681;28;87134;-46
2024/03/15 12:40:02;;;;;;;;;;;6.80;91.80;;;;;;5015155;28;87789;-44
2024/03/15 12:42:29;;;;;;;;;;;6.80;91.90;;;;;;5015760;28;88633;-45
2024/03/15 12:44:55;;;;;;;;;;;6.80;91.90;;;;;;5016613;28;87750;-44
2024/03/15 12:47:20;;;;;;;;;;;6.80;92.00;;;;;;5019078;28;87604;-45
2024/03/15 12:49:46;;;;;;;;;;;6.80;92.10;;;;;;5012405;28;87117;-45
2024/03/15 12:52:12;;;;;;;;;;;6.80;92.10;;;;;;5014031;28;87349;-46
2024/03/15 12:54:39;;;;;;;;;;;6.80;92.10;;;;;;5014527;28;88724;-44
2024/03/15 12:57:05;;;;;;;;;;;6.80;92.10;;;;;;5014648;28;87083;-44
2024/03/15 12:59:30;;;;;;;;;;;6.80;92.10;;;;;;5012388;28;87928;-44
2024/03/15 13:01:56;;;;;;;;;;;6.80;92.10;;;;;;5015265;28;87571;-44
2024/03/15 13:04:21;;;;;;;;;;;6.90;92.10;;;;;;5015070;28;87089;-44
2024/03/15 13:06:50;;;;;;;;;;;7.00;91.90;;;;;;5013225;28;87442;-45
2024/03/15 13:09:15;;;;;;;;;;;6.90;91.80;;;;;;5012934;28;87567;-45
2024/03/15 13:11:41;;;;;;;;;;;6.90;92.00;;;;;;5016113;28;86314;-45
2024/03/15 13:14:08;;;;;;;;;;;7.00;91.90;;;;;;5015269;28;87016;-44
2024/03/15 13:16:33;;;;;;;;;;;7.00;92.20;;;;;;5010885;28;88790;-45
2024/03/15 13:18:59;;;;;;;;;;;7.00;91.80;;;;;;5011301;28;88110;-44
2024/03/15 13:21:24;;;;;;;;;;;7.00;91.80;;;;;;5019616;28;87641;-45
2024/03/15 13:23:50;;;;;;;;;;;7.00;91.80;;;;;;5015221;28;87061;-45
2024/03/15 13:26:20;;;;;;;;;;;7.00;91.90;;;;;;5011155;28;86983;-45
2024/03/15 13:28:46;;;;;;;;;;;7.00;91.80;;;;;;5015596;28;88676;-46
2024/03/15 13:31:13;;;;;;;;;;;7.00;91.90;;;;;;5013424;28;87206;-45
2024/03/15 13:33:39;;;;;;;;;;;7.00;91.80;;;;;;5013303;28;87228;-45
2024/03/15 13:36:09;;;;;;;;;;;7.00;91.80;;;;;;5018562;28;87730;-44
2024/03/15 13:38:36;;;;;;;;;;;7.10;91.80;;;;;;5006747;28;87217;-45
2024/03/15 13:41:03;;;;;;;;;;;7.10;91.70;;;;;;5008817;28;89131;-45
2024/03/15 13:43:29;;;;;;;;;;;7.10;91.90;;;;;;5016887;28;89561;-45
2024/03/15 13:45:57;;;;;;;;;;;7.10;91.90;;;;;;5010171;28;87944;-43
2024/03/15 13:48:25;;;;;;;;;;;7.20;91.70;;;;;;5015914;28;88541;-45
2024/03/15 13:50:51;;;;;;;;;;;7.20;91.70;;;;;;5016051;28;87110;-45
2024/03/15 13:53:17;;;;;;;;;;;7.20;91.70;;;;;;5016177;28;88529;-44
2024/03/15 13:55:42;;;;;;;;;;;7.20;91.70;;;;;;5016869;28;87568;-44
2024/03/15 13:58:08;;;;;;;;;;;7.20;91.60;;;;;;5017763;28;87798;-45
2024/03/15 14:00:41;;;;;;;;;;;7.20;91.60;;;;;;5018125;28;87155;-44
2024/03/15 14:03:08;;;;;;;;;;;7.30;91.60;;;;;;5017778;28;87731;-45
2024/03/15 14:05:37;;;;;;;;;;;7.30;91.70;;;;;;5015246;28;88118;-44
2024/03/15 14:08:05;;;;;;;;;;;7.30;91.60;;;;;;5017088;28;88376;-44
2024/03/15 14:10:34;;;;;;;;;;;7.30;91.50;;;;;;5016513;28;87372;-44
2024/03/15 14:13:01;;;;;;;;;;;7.30;91.50;;;;;;5015515;28;86888;-43
2024/03/15 14:15:26;;;;;;;;;;;7.30;91.60;;;;;;5016328;28;88579;-44
2024/03/15 14:17:52;;;;;;;;;;;7.30;91.60;;;;;;5017437;28;86964;-46
2024/03/15 14:20:18;;;;;;;;;;;7.40;91.60;;;;;;5017532;28;87970;-45
2024/03/15 14:22:44;;;;;;;;;;;7.40;91.60;;;;;;5016677;28;87239;-45
2024/03/15 14:25:15;;;;;;;;;;;7.40;91.60;;;;;;5015642;28;87897;-45
2024/03/15 14:27:44;;;;;;;;;;;7.40;91.40;;;;;;5016536;28;88498;-45
2024/03/15 14:30:16;;;;;;;;;;;7.40;91.60;;;;;;5011134;28;87129;-43
2024/03/15 14:32:45;;;;;;;;;;;7.40;91.50;;;;;;5015396;28;88790;-44
2024/03/15 14:35:14;;;;;;;;;;;7.40;91.60;;;;;;5020125;28;88864;-45